Time;durP1;ratioP1;P1;durP2;ratioP2;P2;SDS_P1;SDS_P2;PMS_P1;PMS_P2;Temp;Humidity;BMP_temperature;BMP_pressure;BME280_temperature;BME280_humidity;BME280_pressure;Samples;Min_cycle;Max_cycle;Signal;HPM_P1;HPM_P2
2023/10/15 00:00:29;;;;;;;12.70;2.90;;;;;;;;;;1044375;28;20059;-66
2023/10/15 00:01:19;;;;;;;7.93;2.70;;;;;;;;;;1044502;28;20052;-65
2023/10/15 00:02:03;;;;;;;7.40;2.67;;;;;;;;;;1045789;28;20040;-65
2023/10/15 00:02:34;;;;;;;8.38;2.90;;;;;;;;;;1046405;28;20279;-65
2023/10/15 00:03:06;;;;;;;13.27;3.33;;;;;;;;;;1043837;28;20428;-66
2023/10/15 00:03:37;;;;;;;11.13;3.35;;;;;;;;;;1042944;28;20052;-65
2023/10/15 00:04:08;;;;;;;6.50;2.65;;;;;;;;;;1045212;28;20056;-67
2023/10/15 00:04:39;;;;;;;7.30;2.72;;;;;;;;;;1046012;28;20511;-66
2023/10/15 00:05:12;;;;;;;7.55;2.85;;;;;;;;;;1044938;28;20436;-66
2023/10/15 00:05:43;;;;;;;7.85;3.05;;;;;;;;;;1043945;28;20044;-65
2023/10/15 00:06:14;;;;;;;6.40;2.85;;;;;;;;;;1045249;28;20036;-66
2023/10/15 00:06:44;;;;;;;10.27;3.10;;;;;;;;;;1045581;28;20041;-66
2023/10/15 00:07:15;;;;;;;11.05;3.20;;;;;;;;;;1045199;28;20060;-66
2023/10/15 00:07:47;;;;;;;5.95;2.70;;;;;;;;;;1044699;28;20048;-65
2023/10/15 00:08:18;;;;;;;8.32;2.90;;;;;;;;;;1044953;28;20051;-65
2023/10/15 00:08:48;;;;;;;8.73;2.65;;;;;;;;;;1045257;28;20055;-67
2023/10/15 00:09:20;;;;;;;10.32;3.17;;;;;;;;;;1043805;28;20105;-67
2023/10/15 00:09:50;;;;;;;9.77;3.08;;;;;;;;;;1045210;28;20174;-68
2023/10/15 00:10:23;;;;;;;7.05;2.83;;;;;;;;;;1044654;28;20182;-67
2023/10/15 00:10:53;;;;;;;9.07;3.38;;;;;;;;;;1044154;28;20045;-65
2023/10/15 00:11:24;;;;;;;7.57;2.80;;;;;;;;;;1044392;28;20099;-69
2023/10/15 00:11:54;;;;;;;6.35;2.60;;;;;;;;;;1045372;28;20057;-66
2023/10/15 00:12:25;;;;;;;6.65;3.25;;;;;;;;;;1046204;28;20470;-67
2023/10/15 00:12:57;;;;;;;7.25;2.88;;;;;;;;;;1044857;28;20061;-65
2023/10/15 00:13:27;;;;;;;10.48;3.17;;;;;;;;;;1045854;28;20044;-66
2023/10/15 00:13:58;;;;;;;15.07;3.10;;;;;;;;;;1044966;28;20049;-65
2023/10/15 00:14:28;;;;;;;6.40;2.65;;;;;;;;;;1044054;28;20048;-66
2023/10/15 00:14:59;;;;;;;7.57;2.63;;;;;;;;;;1047031;28;20110;-69
2023/10/15 00:15:30;;;;;;;7.80;2.67;;;;;;;;;;1043772;28;20445;-66
2023/10/15 00:16:00;;;;;;;8.43;2.97;;;;;;;;;;1045249;28;20048;-68
2023/10/15 00:16:34;;;;;;;8.70;2.95;;;;;;;;;;1044702;28;20052;-67
2023/10/15 00:17:05;;;;;;;6.40;2.67;;;;;;;;;;1045823;28;20048;-69
2023/10/15 00:17:36;;;;;;;5.05;2.53;;;;;;;;;;1044126;28;20053;-68
2023/10/15 00:18:10;;;;;;;6.45;2.40;;;;;;;;;;1044795;28;20056;-67
2023/10/15 00:18:41;;;;;;;4.70;2.50;;;;;;;;;;1044365;28;20056;-66
2023/10/15 00:19:12;;;;;;;7.20;2.53;;;;;;;;;;1046293;28;20121;-68
2023/10/15 00:19:42;;;;;;;6.40;2.70;;;;;;;;;;1042017;28;20048;-65
2023/10/15 00:20:16;;;;;;;7.00;2.22;;;;;;;;;;1045496;28;20044;-64
2023/10/15 00:20:48;;;;;;;11.63;2.83;;;;;;;;;;1044771;28;20059;-66
2023/10/15 00:21:19;;;;;;;4.80;2.47;;;;;;;;;;1044399;28;20151;-68
2023/10/15 00:21:53;;;;;;;10.43;2.78;;;;;;;;;;1046069;28;20040;-66
2023/10/15 00:22:24;;;;;;;8.90;2.85;;;;;;;;;;1043245;28;20094;-65
2023/10/15 00:22:54;;;;;;;12.68;2.83;;;;;;;;;;1045305;28;20036;-66
2023/10/15 00:23:25;;;;;;;7.65;2.45;;;;;;;;;;1045967;28;20071;-65
2023/10/15 00:23:56;;;;;;;7.60;3.35;;;;;;;;;;1044975;28;20052;-66
2023/10/15 00:24:27;;;;;;;9.95;2.47;;;;;;;;;;1044592;28;20048;-66
2023/10/15 00:24:57;;;;;;;6.53;2.50;;;;;;;;;;1042890;28;20782;-66
2023/10/15 00:25:27;;;;;;;9.85;2.67;;;;;;;;;;1044622;28;20165;-64
2023/10/15 00:25:59;;;;;;;7.82;2.60;;;;;;;;;;1045120;28;20048;-67
2023/10/15 00:26:30;;;;;;;6.43;2.97;;;;;;;;;;1044731;28;20048;-66
2023/10/15 00:27:00;;;;;;;5.18;2.65;;;;;;;;;;1045905;28;20433;-66
2023/10/15 00:27:31;;;;;;;8.60;2.38;;;;;;;;;;1045015;28;20493;-66
2023/10/15 00:28:06;;;;;;;5.57;2.72;;;;;;;;;;1046078;28;20079;-67
2023/10/15 00:28:37;;;;;;;9.82;2.85;;;;;;;;;;1044234;28;20135;-65
2023/10/15 00:29:08;;;;;;;17.88;3.22;;;;;;;;;;1044801;28;20052;-65
2023/10/15 00:29:39;;;;;;;7.57;2.63;;;;;;;;;;1045026;28;20041;-66
2023/10/15 00:30:14;;;;;;;7.38;2.63;;;;;;;;;;1043748;28;20440;-65
2023/10/15 00:30:44;;;;;;;8.82;2.65;;;;;;;;;;1045413;28;20186;-65
2023/10/15 00:31:14;;;;;;;11.40;2.42;;;;;;;;;;1046140;28;20218;-64
2023/10/15 00:31:47;;;;;;;4.20;2.50;;;;;;;;;;1045044;28;20056;-65
2023/10/15 00:32:17;;;;;;;8.73;2.63;;;;;;;;;;1046104;28;20530;-66
2023/10/15 00:32:57;;;;;;;6.80;2.40;;;;;;;;;;1045185;28;20800;-66
2023/10/15 00:33:30;;;;;;;;;;;;;;;;;;1044829;28;20048;-67
2023/10/15 00:34:01;;;;;;;9.40;3.08;;;;;;;;;;1044687;28;19975;-67
2023/10/15 00:34:31;;;;;;;8.77;2.95;;;;;;;;;;1045729;28;20102;-66
2023/10/15 00:35:04;;;;;;;6.88;2.55;;;;;;;;;;1042115;28;20052;-65
2023/10/15 00:35:35;;;;;;;9.00;2.40;;;;;;;;;;1043511;28;20053;-65
2023/10/15 00:36:06;;;;;;;4.97;2.45;;;;;;;;;;1043456;28;20041;-66
2023/10/15 00:36:38;;;;;;;7.40;2.65;;;;;;;;;;1043159;28;20061;-64
2023/10/15 00:37:08;;;;;;;7.65;2.70;;;;;;;;;;1043997;28;20036;-66
2023/10/15 00:37:51;;;;;;;8.27;2.63;;;;;;;;;;1046931;28;20040;-64
2023/10/15 00:38:24;;;;;;;5.20;2.47;;;;;;;;;;1044429;28;20079;-66
2023/10/15 00:38:55;;;;;;;7.97;2.47;;;;;;;;;;1044091;28;20060;-67
2023/10/15 00:39:25;;;;;;;7.20;2.42;;;;;;;;;;1045280;28;20052;-66
2023/10/15 00:39:58;;;;;;;8.35;2.60;;;;;;;;;;1046472;28;20056;-64
2023/10/15 00:40:29;;;;;;;10.77;2.85;;;;;;;;;;1043575;28;20982;-66
2023/10/15 00:41:07;;;;;;;11.00;2.65;;;;;;;;;;1043701;28;20637;-66
2023/10/15 00:41:40;;;;;;;8.15;2.97;;;;;;;;;;1044297;28;20057;-65
2023/10/15 00:42:10;;;;;;;13.02;3.00;;;;;;;;;;1046304;28;20048;-65
2023/10/15 00:42:41;;;;;;;6.90;2.58;;;;;;;;;;1044900;28;20090;-67
2023/10/15 00:43:17;;;;;;;10.88;3.00;;;;;;;;;;1044733;28;20062;-66
2023/10/15 00:43:55;;;;;;;7.63;2.90;;;;;;;;;;1045331;28;20821;-65
2023/10/15 00:44:26;;;;;;;6.57;2.28;;;;;;;;;;1045304;28;20555;-66
2023/10/15 00:44:57;;;;;;;8.18;3.03;;;;;;;;;;1045643;28;20065;-66
2023/10/15 00:45:28;;;;;;;5.57;2.47;;;;;;;;;;1042159;28;20056;-65
2023/10/15 00:46:03;;;;;;;8.20;2.50;;;;;;;;;;1046605;28;20036;-66
2023/10/15 00:46:37;;;;;;;7.10;2.80;;;;;;;;;;1043458;28;20109;-65
2023/10/15 00:47:15;;;;;;;9.80;2.63;;;;;;;;;;1043700;28;20050;-66
2023/10/15 00:48:22;;;;;;;6.05;2.70;;;;;;;;;;1045063;28;20052;-66
2023/10/15 00:48:43;;;;;;;4.85;2.40;;;;;;;;;;1044488;28;20064;-66
2023/10/15 00:49:14;;;;;;;7.47;2.45;;;;;;;;;;1045106;28;20087;-65
2023/10/15 00:49:45;;;;;;;6.63;2.97;;;;;;;;;;1045127;28;20044;-66
2023/10/15 00:50:16;;;;;;;5.47;2.45;;;;;;;;;;1044375;28;20056;-65
2023/10/15 00:50:47;;;;;;;5.30;2.10;;;;;;;;;;1044129;28;20192;-66
2023/10/15 00:51:20;;;;;;;8.85;3.08;;;;;;;;;;1044764;28;20051;-65
2023/10/15 00:51:52;;;;;;;10.07;3.10;;;;;;;;;;1043615;28;20040;-65
2023/10/15 00:52:29;;;;;;;6.80;2.55;;;;;;;;;;1044592;28;20072;-65
2023/10/15 00:53:05;;;;;;;8.05;2.47;;;;;;;;;;1044420;28;20070;-66
2023/10/15 00:53:41;;;;;;;6.43;2.45;;;;;;;;;;1045420;28;20768;-65
2023/10/15 00:54:17;;;;;;;5.07;2.10;;;;;;;;;;1044434;28;20052;-65
2023/10/15 00:54:48;;;;;;;8.77;2.67;;;;;;;;;;1045348;28;20052;-65
2023/10/15 00:55:22;;;;;;;12.35;3.03;;;;;;;;;;1045917;28;20044;-65
2023/10/15 00:56:01;;;;;;;6.68;2.30;;;;;;;;;;1043761;28;20773;-65
2023/10/15 00:56:35;;;;;;;6.45;3.53;;;;;;;;;;1044349;28;20040;-66
2023/10/15 00:57:26;;;;;;;10.70;2.13;;;;;;;;;;1042372;27;20524;-66
2023/10/15 00:57:57;;;;;;;6.20;2.40;;;;;;;;;;1043356;28;20047;-65
2023/10/15 00:59:47;;;;;;;7.13;2.55;;;;;;;;;;1044024;28;20056;-65
2023/10/15 01:02:35;;;;;;;7.60;2.20;;;;;;;;;;1043860;28;20519;-65
2023/10/15 01:03:07;;;;;;;5.32;2.30;;;;;;;;;;1045180;28;20072;-66
2023/10/15 01:03:38;;;;;;;10.80;2.45;;;;;;;;;;1044774;28;20119;-64
2023/10/15 01:04:10;;;;;;;5.20;2.10;;;;;;;;;;1044937;28;20093;-66
2023/10/15 01:04:41;;;;;;;6.32;2.20;;;;;;;;;;1045460;28;20086;-65
2023/10/15 01:05:14;;;;;;;6.65;2.35;;;;;;;;;;1046551;28;20389;-65
2023/10/15 01:05:53;;;;;;;4.85;2.15;;;;;;;;;;1042972;28;20487;-66
2023/10/15 01:06:30;;;;;;;7.72;2.55;;;;;;;;;;1042552;28;20045;-66
2023/10/15 01:07:14;;;;;;;4.10;1.95;;;;;;;;;;1044659;28;20110;-65
2023/10/15 01:07:47;;;;;;;8.77;2.72;;;;;;;;;;1043123;28;20058;-66
2023/10/15 01:08:17;;;;;;;5.93;2.40;;;;;;;;;;1046004;28;20118;-66
2023/10/15 01:08:49;;;;;;;7.80;2.42;;;;;;;;;;1043200;28;20045;-65
2023/10/15 01:09:28;;;;;;;4.47;2.28;;;;;;;;;;1044879;28;20064;-67
2023/10/15 01:09:59;;;;;;;4.95;2.00;;;;;;;;;;1045334;28;20040;-68
2023/10/15 01:10:40;;;;;;;5.10;2.15;;;;;;;;;;1044184;28;20052;-66
2023/10/15 01:11:15;;;;;;;10.70;2.35;;;;;;;;;;1044879;28;20040;-66
2023/10/15 01:11:55;;;;;;;7.03;2.13;;;;;;;;;;1044627;28;20131;-64
2023/10/15 01:12:32;;;;;;;8.10;2.28;;;;;;;;;;1043759;28;20463;-66
2023/10/15 01:13:17;;;;;;;10.30;1.98;;;;;;;;;;1045733;28;20052;-66
2023/10/15 01:13:48;;;;;;;5.45;2.17;;;;;;;;;;1042298;28;20057;-64
2023/10/15 01:14:37;;;;;;;6.85;1.95;;;;;;;;;;1039761;28;20078;-65
2023/10/15 01:15:08;;;;;;;6.90;2.30;;;;;;;;;;1041483;28;20052;-66
2023/10/15 01:15:42;;;;;;;5.35;2.50;;;;;;;;;;1039785;28;20743;-67
2023/10/15 01:16:17;;;;;;;8.77;2.35;;;;;;;;;;1040806;28;20041;-65
2023/10/15 01:16:48;;;;;;;7.65;2.20;;;;;;;;;;1041594;28;20052;-66
2023/10/15 01:17:23;;;;;;;7.55;2.38;;;;;;;;;;1042332;28;20201;-66
2023/10/15 01:18:00;;;;;;;8.60;2.40;;;;;;;;;;1045566;28;20044;-66
2023/10/15 01:18:31;;;;;;;9.35;2.47;;;;;;;;;;1044051;28;20444;-65
2023/10/15 01:19:15;;;;;;;4.45;2.00;;;;;;;;;;1045437;28;20507;-66
2023/10/15 01:19:45;;;;;;;6.72;2.08;;;;;;;;;;1041448;28;20078;-65
2023/10/15 01:20:18;;;;;;;8.35;2.20;;;;;;;;;;1043179;28;20053;-66
2023/10/15 01:20:49;;;;;;;6.30;2.15;;;;;;;;;;1045484;28;20842;-67
2023/10/15 01:21:19;;;;;;;4.57;2.05;;;;;;;;;;1046159;28;20563;-67
2023/10/15 01:22:23;;;;;;;7.78;2.13;;;;;;;;;;1045947;28;20052;-67
2023/10/15 01:22:53;;;;;;;7.80;2.28;;;;;;;;;;1044671;28;20404;-65
2023/10/15 01:23:31;;;;;;;9.32;2.60;;;;;;;;;;1043831;28;20428;-64
2023/10/15 01:24:04;;;;;;;6.28;2.10;;;;;;;;;;1042473;28;20053;-66
2023/10/15 01:24:37;;;;;;;6.35;1.90;;;;;;;;;;1041495;28;20519;-65
2023/10/15 01:25:24;;;;;;;12.45;3.20;;;;;;;;;;1041200;28;20056;-66
2023/10/15 01:25:57;;;;;;;6.47;2.25;;;;;;;;;;1040368;28;20069;-64
2023/10/15 01:26:34;;;;;;;6.40;1.85;;;;;;;;;;1043745;28;20467;-65
2023/10/15 01:27:37;;;;;;;8.95;2.30;;;;;;;;;;1044626;28;20055;-66
2023/10/15 01:28:07;;;;;;;3.80;1.95;;;;;;;;;;1045498;28;20048;-66
2023/10/15 01:28:38;;;;;;;8.75;2.70;;;;;;;;;;1045668;28;20071;-66
2023/10/15 01:29:08;;;;;;;3.65;1.98;;;;;;;;;;1045602;28;20453;-64
2023/10/15 01:29:44;;;;;;;5.25;2.65;;;;;;;;;;1044958;28;20053;-66
2023/10/15 01:30:17;;;;;;;7.63;2.33;;;;;;;;;;1044678;28;20047;-66
2023/10/15 01:30:50;;;;;;;5.30;2.05;;;;;;;;;;1044579;28;20044;-65
2023/10/15 01:31:24;;;;;;;7.85;2.38;;;;;;;;;;1041100;28;20186;-64
2023/10/15 01:31:59;;;;;;;4.65;1.90;;;;;;;;;;1045606;28;20149;-65
2023/10/15 01:32:30;;;;;;;4.88;2.05;;;;;;;;;;1043166;28;20056;-66
2023/10/15 01:33:06;;;;;;;4.72;2.30;;;;;;;;;;1043847;28;20053;-66
2023/10/15 01:33:46;;;;;;;6.72;2.15;;;;;;;;;;1041015;28;20060;-65
2023/10/15 01:34:21;;;;;;;8.40;2.38;;;;;;;;;;1041886;28;20053;-65
2023/10/15 01:34:52;;;;;;;7.65;2.63;;;;;;;;;;1045773;28;20052;-63
2023/10/15 01:35:24;;;;;;;4.93;2.08;;;;;;;;;;1044183;28;20048;-66
2023/10/15 01:35:57;;;;;;;8.90;2.63;;;;;;;;;;1045292;28;20775;-64
2023/10/15 01:36:28;;;;;;;8.63;2.83;;;;;;;;;;1044645;28;20049;-64
2023/10/15 01:36:59;;;;;;;8.88;2.20;;;;;;;;;;1046063;28;20528;-65
2023/10/15 01:37:30;;;;;;;8.25;2.15;;;;;;;;;;1044920;28;20815;-65
2023/10/15 01:38:11;;;;;;;7.00;2.10;;;;;;;;;;1045743;28;20040;-65
2023/10/15 01:38:44;;;;;;;8.90;2.38;;;;;;;;;;1043324;28;20052;-65
2023/10/15 01:39:21;;;;;;;6.50;2.45;;;;;;;;;;1040822;28;20048;-65
2023/10/15 01:40:01;;;;;;;4.78;1.70;;;;;;;;;;1043085;28;20126;-65
2023/10/15 01:40:40;;;;;;;12.80;2.30;;;;;;;;;;1045546;28;20123;-67
2023/10/15 01:41:13;;;;;;;3.80;2.05;;;;;;;;;;1042607;28;20066;-66
2023/10/15 01:41:44;;;;;;;4.68;1.98;;;;;;;;;;1041902;28;20167;-66
2023/10/15 01:42:58;;;;;;;7.65;2.33;;;;;;;;;;1042719;28;20048;-67
2023/10/15 01:43:32;;;;;;;6.40;2.28;;;;;;;;;;1043335;28;20048;-65
2023/10/15 01:44:05;;;;;;;6.55;2.35;;;;;;;;;;1044754;28;20156;-64
2023/10/15 01:44:47;;;;;;;6.55;2.47;;;;;;;;;;1041240;28;20049;-65
2023/10/15 01:45:30;;;;;;;8.13;2.13;;;;;;;;;;1044549;28;20127;-64
2023/10/15 01:46:10;;;;;;;8.13;2.42;;;;;;;;;;1044656;28;20041;-65
2023/10/15 01:46:48;;;;;;;6.90;1.83;;;;;;;;;;1044409;28;20068;-65
2023/10/15 01:47:18;;;;;;;5.82;1.50;;;;;;;;;;1043547;28;20528;-65
2023/10/15 01:48:30;;;;;;;7.53;2.28;;;;;;;;;;1042248;28;20041;-66
2023/10/15 01:49:06;;;;;;;5.80;1.85;;;;;;;;;;1040985;28;20056;-66
2023/10/15 01:49:37;;;;;;;6.18;2.15;;;;;;;;;;1039119;28;20091;-65
2023/10/15 01:50:15;;;;;;;6.00;2.10;;;;;;;;;;1038547;28;20053;-65
2023/10/15 01:50:51;;;;;;;5.47;2.00;;;;;;;;;;1039438;28;22177;-66
2023/10/15 01:51:22;;;;;;;4.35;1.90;;;;;;;;;;1038562;28;20048;-66
2023/10/15 01:51:53;;;;;;;9.90;1.98;;;;;;;;;;1038946;28;20052;-65
2023/10/15 01:52:32;;;;;;;8.52;1.98;;;;;;;;;;1039523;28;20053;-65
2023/10/15 01:53:04;;;;;;;4.80;1.80;;;;;;;;;;1038824;28;20092;-65
2023/10/15 01:53:39;;;;;;;5.75;2.00;;;;;;;;;;1038195;28;20056;-65
2023/10/15 01:54:09;;;;;;;6.10;2.03;;;;;;;;;;1036758;28;20136;-65
2023/10/15 01:54:44;;;;;;;10.35;1.98;;;;;;;;;;1040736;28;20037;-65
2023/10/15 01:55:17;;;;;;;6.45;2.15;;;;;;;;;;1039287;28;20072;-65
2023/10/15 01:55:56;;;;;;;6.70;2.20;;;;;;;;;;1042216;28;20041;-65
2023/10/15 01:56:28;;;;;;;18.70;5.25;;;;;;;;;;1042532;28;20102;-64
2023/10/15 01:57:01;;;;;;;14.00;3.88;;;;;;;;;;1045918;28;20385;-66
2023/10/15 01:57:32;;;;;;;5.07;1.65;;;;;;;;;;1041833;28;20071;-64
2023/10/15 01:58:04;;;;;;;4.97;2.00;;;;;;;;;;1042743;28;20037;-63
2023/10/15 01:58:39;;;;;;;8.90;2.13;;;;;;;;;;1041181;28;20209;-65
2023/10/15 01:59:11;;;;;;;8.05;2.00;;;;;;;;;;1041598;28;20045;-65
2023/10/15 01:59:48;;;;;;;5.90;1.85;;;;;;;;;;1041638;28;20050;-64
2023/10/15 02:00:34;;;;;;;4.25;1.88;;;;;;;;;;1041171;28;20056;-67
2023/10/15 02:02:01;;;;;;;7.20;1.98;;;;;;;;;;1045742;28;20060;-66
2023/10/15 02:02:09;;;;;;;8.23;2.05;;;;;;;;;;1040557;28;20056;-64
2023/10/15 02:02:43;;;;;;;6.20;1.90;;;;;;;;;;1045815;28;20735;-66
2023/10/15 02:03:14;;;;;;;4.82;1.98;;;;;;;;;;1043075;28;20047;-65
2023/10/15 02:03:44;;;;;;;6.45;1.63;;;;;;;;;;1043053;28;20047;-68
2023/10/15 02:04:57;;;;;;;5.55;2.28;;;;;;;;;;1045880;28;20045;-66
2023/10/15 02:05:41;;;;;;;4.85;2.05;;;;;;;;;;1043906;28;20049;-65
2023/10/15 02:06:11;;;;;;;8.50;1.85;;;;;;;;;;1044652;28;20055;-65
2023/10/15 02:06:44;;;;;;;6.03;1.88;;;;;;;;;;1044122;28;20041;-65
2023/10/15 02:07:16;;;;;;;4.78;1.95;;;;;;;;;;1044745;28;20044;-65
2023/10/15 02:07:47;;;;;;;6.25;1.60;;;;;;;;;;1042728;28;20052;-64
2023/10/15 02:08:23;;;;;;;6.28;2.13;;;;;;;;;;1043841;28;20048;-65
2023/10/15 02:08:56;;;;;;;4.85;2.05;;;;;;;;;;1044947;28;20052;-66
2023/10/15 02:09:29;;;;;;;7.65;1.70;;;;;;;;;;1044906;28;20830;-64
2023/10/15 02:10:00;;;;;;;6.50;2.25;;;;;;;;;;1045146;28;20049;-66
2023/10/15 02:10:31;;;;;;;8.02;2.13;;;;;;;;;;1045203;28;20049;-65
2023/10/15 02:11:16;;;;;;;5.57;2.30;;;;;;;;;;1043584;28;20722;-66
2023/10/15 02:11:54;;;;;;;9.18;1.98;;;;;;;;;;1043708;28;20502;-66
2023/10/15 02:12:24;;;;;;;6.47;2.22;;;;;;;;;;1044701;28;20833;-64
2023/10/15 02:13:04;;;;;;;5.70;1.75;;;;;;;;;;1045360;28;20386;-64
2023/10/15 02:13:37;;;;;;;6.82;2.17;;;;;;;;;;1044469;28;20923;-66
2023/10/15 02:14:16;;;;;;;6.97;2.10;;;;;;;;;;1044383;28;20462;-65
2023/10/15 02:14:51;;;;;;;7.65;3.42;;;;;;;;;;1046261;28;20039;-66
2023/10/15 02:15:24;;;;;;;3.75;1.90;;;;;;;;;;1043851;28;20052;-66
2023/10/15 02:15:58;;;;;;;3.78;1.83;;;;;;;;;;1044930;28;20053;-64
2023/10/15 02:16:32;;;;;;;6.07;1.90;;;;;;;;;;1045437;28;20052;-64
2023/10/15 02:17:06;;;;;;;5.65;2.05;;;;;;;;;;1044285;28;20048;-65
2023/10/15 02:17:36;;;;;;;8.18;2.40;;;;;;;;;;1045662;28;20554;-65
2023/10/15 02:18:09;;;;;;;7.45;2.10;;;;;;;;;;1043388;28;20622;-65
2023/10/15 02:18:43;;;;;;;7.55;2.10;;;;;;;;;;1037628;28;20084;-65
2023/10/15 02:19:40;;;;;;;6.25;2.47;;;;;;;;;;1041948;28;20735;-65
2023/10/15 02:20:13;;;;;;;8.70;2.78;;;;;;;;;;1045436;28;20040;-65
2023/10/15 02:21:16;;;;;;;5.78;2.08;;;;;;;;;;1043557;28;20390;-64
2023/10/15 02:21:50;;;;;;;4.40;1.90;;;;;;;;;;1043755;28;20222;-65
2023/10/15 02:22:21;;;;;;;9.23;2.60;;;;;;;;;;1045200;28;20032;-65
2023/10/15 02:22:53;;;;;;;8.85;1.90;;;;;;;;;;1044654;28;20048;-65
2023/10/15 02:23:24;;;;;;;5.97;1.95;;;;;;;;;;1045251;28;20121;-66
2023/10/15 02:24:06;;;;;;;7.85;2.28;;;;;;;;;;1043128;28;20121;-64
2023/10/15 02:24:37;;;;;;;6.93;1.92;;;;;;;;;;1044314;28;20061;-66
2023/10/15 02:25:08;;;;;;;12.15;1.60;;;;;;;;;;1044649;28;20052;-66
2023/10/15 02:25:46;;;;;;;4.50;1.88;;;;;;;;;;1045325;28;20041;-66
2023/10/15 02:26:30;;;;;;;5.88;1.75;;;;;;;;;;1045381;28;20048;-65
2023/10/15 02:27:06;;;;;;;5.47;2.08;;;;;;;;;;1045751;28;20049;-66
2023/10/15 02:27:36;;;;;;;5.68;2.03;;;;;;;;;;1045860;28;20091;-66
2023/10/15 02:28:09;;;;;;;6.68;1.95;;;;;;;;;;1043883;28;20052;-66
2023/10/15 02:28:40;;;;;;;6.80;1.85;;;;;;;;;;1045110;28;20618;-65
2023/10/15 02:29:59;;;;;;;5.30;1.80;;;;;;;;;;1045297;28;20044;-66
2023/10/15 02:30:32;;;;;;;7.93;2.45;;;;;;;;;;1044183;28;20420;-65
2023/10/15 02:31:42;;;;;;;7.78;2.10;;;;;;;;;;1044696;28;20049;-64
2023/10/15 02:32:28;;;;;;;4.18;1.92;;;;;;;;;;1043561;28;20056;-65
2023/10/15 02:33:01;;;;;;;6.47;2.10;;;;;;;;;;1046098;28;20053;-68
2023/10/15 02:33:31;;;;;;;5.07;1.88;;;;;;;;;;1045409;28;20059;-66
2023/10/15 02:34:04;;;;;;;7.53;1.88;;;;;;;;;;1045716;28;20080;-65
2023/10/15 02:34:40;;;;;;;7.30;2.95;;;;;;;;;;1044581;28;20484;-65
2023/10/15 02:35:13;;;;;;;9.40;2.00;;;;;;;;;;1045161;28;20136;-65
2023/10/15 02:35:47;;;;;;;6.70;2.00;;;;;;;;;;1042640;28;20131;-66
2023/10/15 02:36:23;;;;;;;6.13;1.65;;;;;;;;;;1045237;28;20048;-66
2023/10/15 02:37:02;;;;;;;7.10;2.13;;;;;;;;;;1044564;28;20056;-67
2023/10/15 02:37:33;;;;;;;6.20;1.80;;;;;;;;;;1042747;28;20040;-66
2023/10/15 02:38:08;;;;;;;7.65;1.98;;;;;;;;;;1051996;28;20098;-66
2023/10/15 02:38:48;;;;;;;3.72;1.85;;;;;;;;;;1052094;28;20499;-65
2023/10/15 02:39:22;;;;;;;5.95;1.73;;;;;;;;;;1051757;28;20044;-65
2023/10/15 02:39:53;;;;;;;6.57;1.80;;;;;;;;;;1047491;28;20043;-66
2023/10/15 02:40:35;;;;;;;7.82;1.83;;;;;;;;;;1044550;28;21072;-66
2023/10/15 02:41:06;;;;;;;6.70;1.98;;;;;;;;;;1045742;28;20044;-66
2023/10/15 02:41:43;;;;;;;6.80;1.83;;;;;;;;;;1046194;28;20473;-66
2023/10/15 02:42:15;;;;;;;6.20;2.25;;;;;;;;;;1043955;28;20623;-65
2023/10/15 02:42:52;;;;;;;6.22;1.80;;;;;;;;;;1045397;28;20049;-65
2023/10/15 02:43:26;;;;;;;5.13;1.77;;;;;;;;;;1045457;28;20063;-65
2023/10/15 02:43:57;;;;;;;8.68;1.92;;;;;;;;;;1044771;28;20530;-66
2023/10/15 02:44:32;;;;;;;3.67;1.85;;;;;;;;;;1045560;28;20574;-63
2023/10/15 02:45:06;;;;;;;5.15;1.92;;;;;;;;;;1046625;28;20831;-64
2023/10/15 02:45:36;;;;;;;4.88;2.10;;;;;;;;;;1043919;28;20057;-64
2023/10/15 02:46:36;;;;;;;7.57;2.15;;;;;;;;;;1044190;28;20052;-66
2023/10/15 02:47:07;;;;;;;9.52;2.08;;;;;;;;;;1045589;28;20044;-66
2023/10/15 02:47:41;;;;;;;6.30;2.25;;;;;;;;;;1044050;28;20049;-66
2023/10/15 02:48:19;;;;;;;7.60;1.85;;;;;;;;;;1045507;28;20427;-65
2023/10/15 02:48:53;;;;;;;6.32;2.10;;;;;;;;;;1044031;28;20929;-66
2023/10/15 02:49:25;;;;;;;5.97;1.90;;;;;;;;;;1045406;28;20052;-66
2023/10/15 02:50:00;;;;;;;5.10;1.65;;;;;;;;;;1043798;28;20079;-65
2023/10/15 02:50:33;;;;;;;5.35;2.53;;;;;;;;;;1043591;28;20378;-64
2023/10/15 02:51:08;;;;;;;3.70;1.98;;;;;;;;;;1043453;28;20102;-65
2023/10/15 02:51:39;;;;;;;4.00;1.50;;;;;;;;;;1043855;28;20056;-66
2023/10/15 02:52:18;;;;;;;8.52;2.00;;;;;;;;;;1045334;28;20049;-66
2023/10/15 02:52:49;;;;;;;7.53;2.20;;;;;;;;;;1045236;28;20064;-65
2023/10/15 02:53:23;;;;;;;6.28;1.92;;;;;;;;;;1043940;28;20048;-65
2023/10/15 02:54:18;;;;;;;8.13;2.00;;;;;;;;;;1046516;28;20094;-65
2023/10/15 02:54:49;;;;;;;6.28;1.67;;;;;;;;;;1043787;28;20053;-65
2023/10/15 02:55:26;;;;;;;7.30;1.77;;;;;;;;;;1044087;28;20044;-65
2023/10/15 02:55:58;;;;;;;4.32;1.60;;;;;;;;;;1045209;28;20049;-65
2023/10/15 02:56:28;;;;;;;7.10;1.60;;;;;;;;;;1044252;28;20557;-65
2023/10/15 02:56:59;;;;;;;4.20;1.60;;;;;;;;;;1046348;28;20493;-65
2023/10/15 02:57:30;;;;;;;6.38;1.80;;;;;;;;;;1045101;28;20048;-66
2023/10/15 02:58:02;;;;;;;6.82;1.90;;;;;;;;;;1044954;28;20138;-64
2023/10/15 02:58:32;;;;;;;5.10;2.00;;;;;;;;;;1044833;28;20052;-66
2023/10/15 02:59:03;;;;;;;8.50;2.30;;;;;;;;;;1043450;28;20049;-64
2023/10/15 02:59:37;;;;;;;6.32;1.85;;;;;;;;;;1044488;28;20911;-65
2023/10/15 03:00:28;;;;;;;4.20;1.90;;;;;;;;;;1044696;28;20040;-65
2023/10/15 03:00:59;;;;;;;6.68;1.95;;;;;;;;;;1044094;28;20067;-64
2023/10/15 03:01:30;;;;;;;6.03;2.65;;;;;;;;;;1045081;28;20052;-65
2023/10/15 03:02:06;;;;;;;9.18;1.85;;;;;;;;;;1045861;28;20404;-65
2023/10/15 03:02:42;;;;;;;5.53;1.63;;;;;;;;;;1044966;28;20501;-66
2023/10/15 03:03:16;;;;;;;5.85;1.98;;;;;;;;;;1045327;28;20514;-66
2023/10/15 03:03:52;;;;;;;7.50;1.83;;;;;;;;;;1045244;28;20126;-66
2023/10/15 03:04:38;;;;;;;5.00;2.05;;;;;;;;;;1045779;28;20091;-65
2023/10/15 03:05:13;;;;;;;7.15;1.80;;;;;;;;;;1045356;28;20127;-66
2023/10/15 03:05:46;;;;;;;5.82;1.90;;;;;;;;;;1046428;28;20132;-65
2023/10/15 03:06:41;;;;;;;5.63;1.90;;;;;;;;;;1045497;28;20741;-65
2023/10/15 03:07:30;;;;;;;10.07;2.00;;;;;;;;;;1045251;28;20484;-64
2023/10/15 03:08:01;;;;;;;7.35;2.25;;;;;;;;;;1043165;28;20097;-66
2023/10/15 03:08:32;;;;;;;8.95;2.00;;;;;;;;;;1042474;28;20107;-64
2023/10/15 03:09:11;;;;;;;3.38;1.60;;;;;;;;;;1045389;28;20040;-66
2023/10/15 03:09:43;;;;;;;4.78;1.83;;;;;;;;;;1044304;28;20520;-66
2023/10/15 03:10:21;;;;;;;8.18;3.05;;;;;;;;;;1045101;28;20048;-65
2023/10/15 03:10:58;;;;;;;4.88;1.75;;;;;;;;;;1051835;28;20058;-66
2023/10/15 03:11:32;;;;;;;8.40;1.95;;;;;;;;;;1051422;28;20055;-65
2023/10/15 03:12:04;;;;;;;5.68;1.55;;;;;;;;;;1053554;28;20101;-66
2023/10/15 03:12:35;;;;;;;4.32;2.10;;;;;;;;;;1049390;28;20052;-64
2023/10/15 03:13:07;;;;;;;7.13;2.13;;;;;;;;;;1044759;28;20059;-64
2023/10/15 03:13:50;;;;;;;8.32;1.77;;;;;;;;;;1043549;28;20791;-65
2023/10/15 03:14:24;;;;;;;2.80;1.50;;;;;;;;;;1045137;28;20139;-65
2023/10/15 03:14:55;;;;;;;7.38;1.85;;;;;;;;;;1044663;28;20083;-66
2023/10/15 03:15:26;;;;;;;4.03;1.83;;;;;;;;;;1045147;28;20224;-65
2023/10/15 03:15:57;;;;;;;5.30;1.85;;;;;;;;;;1044726;28;20045;-65
2023/10/15 03:16:32;;;;;;;9.45;2.45;;;;;;;;;;1044012;28;20056;-65
2023/10/15 03:17:04;;;;;;;7.07;1.75;;;;;;;;;;1045678;28;20048;-65
2023/10/15 03:17:40;;;;;;;9.93;2.45;;;;;;;;;;1046323;28;20167;-65
2023/10/15 03:18:14;;;;;;;4.88;1.90;;;;;;;;;;1043389;28;23769;-65
2023/10/15 03:18:49;;;;;;;7.55;1.88;;;;;;;;;;1045068;28;20106;-63
2023/10/15 03:19:23;;;;;;;5.90;1.90;;;;;;;;;;1044076;28;20415;-64
2023/10/15 03:20:05;;;;;;;5.15;1.70;;;;;;;;;;1046506;28;20488;-65
2023/10/15 03:20:42;;;;;;;5.57;1.75;;;;;;;;;;1044508;28;20417;-65
2023/10/15 03:21:24;;;;;;;5.18;2.25;;;;;;;;;;1044785;28;20045;-65
2023/10/15 03:21:59;;;;;;;9.70;3.13;;;;;;;;;;1046789;28;20765;-63
2023/10/15 03:22:30;;;;;;;6.50;1.77;;;;;;;;;;1043755;28;20044;-65
2023/10/15 03:23:01;;;;;;;4.10;1.67;;;;;;;;;;1044430;28;20048;-63
2023/10/15 03:23:32;;;;;;;7.15;1.92;;;;;;;;;;1043798;28;20052;-66
2023/10/15 03:24:04;;;;;;;6.63;2.03;;;;;;;;;;1046232;28;20063;-65
2023/10/15 03:24:36;;;;;;;4.90;1.83;;;;;;;;;;1043969;28;20140;-64
2023/10/15 03:25:13;;;;;;;4.55;1.67;;;;;;;;;;1044621;28;20862;-65
2023/10/15 03:25:48;;;;;;;7.47;2.33;;;;;;;;;;1043711;28;20048;-66
2023/10/15 03:26:18;;;;;;;5.20;2.00;;;;;;;;;;1046148;28;20105;-65
2023/10/15 03:26:49;;;;;;;3.65;1.45;;;;;;;;;;1045089;28;20185;-65
2023/10/15 03:27:26;;;;;;;6.53;1.73;;;;;;;;;;1044421;28;20052;-65
2023/10/15 03:28:00;;;;;;;4.60;1.80;;;;;;;;;;1053877;28;20039;-64
2023/10/15 03:28:30;;;;;;;4.47;1.85;;;;;;;;;;1052679;28;20572;-64
2023/10/15 03:29:07;;;;;;;3.40;1.90;;;;;;;;;;1052128;28;20720;-66
2023/10/15 03:29:38;;;;;;;8.05;1.90;;;;;;;;;;1050636;28;20048;-66
2023/10/15 03:30:10;;;;;;;4.07;1.60;;;;;;;;;;1043845;28;20044;-65
2023/10/15 03:30:44;;;;;;;6.68;2.00;;;;;;;;;;1046182;28;20127;-65
2023/10/15 03:31:14;;;;;;;4.00;1.80;;;;;;;;;;1045406;28;20501;-66
2023/10/15 03:31:48;;;;;;;5.82;2.03;;;;;;;;;;1046475;28;20659;-65
2023/10/15 03:32:19;;;;;;;4.75;1.52;;;;;;;;;;1045761;28;20043;-65
2023/10/15 03:32:52;;;;;;;9.02;2.00;;;;;;;;;;1045244;28;20037;-65
2023/10/15 03:33:23;;;;;;;5.65;2.15;;;;;;;;;;1044487;28;20484;-65
2023/10/15 03:34:47;;;;;;;5.70;2.00;;;;;;;;;;1046135;28;20060;-64